Aviation Digital Data Service (ADDS)

Output produced by METARs form (1704 UTC 20 January 2019)
found at http://www.aviationweather.gov/metar/data/
 
MBGT 201030Z 2012/2112 11008KT 9999 VCSH SCT016 
     BECMG 2018/2020 15015KT
       
MBPV 201030Z 2012/2112 11008KT 9999 VCSH SCT016 
     BECMG 2018/2020 15015KT